sensor_id;sensor_type;location;lat;lon;timestamp;P1;durP1;ratioP1;P2;durP2;ratioP2
31114;SDS011;17764;47.152;9.828;2022-07-21T00:02:18;6.18;;;5.57;;
31114;SDS011;17764;47.152;9.828;2022-07-21T00:04:44;7.78;;;6.10;;
31114;SDS011;17764;47.152;9.828;2022-07-21T00:07:10;7.50;;;6.32;;
31114;SDS011;17764;47.152;9.828;2022-07-21T00:09:36;8.20;;;5.95;;
31114;SDS011;17764;47.152;9.828;2022-07-21T00:12:03;6.55;;;5.82;;
31114;SDS011;17764;47.152;9.828;2022-07-21T00:14:29;6.70;;;5.90;;
31114;SDS011;17764;47.152;9.828;2022-07-21T00:16:55;7.32;;;5.57;;
31114;SDS011;17764;47.152;9.828;2022-07-21T00:19:22;6.68;;;5.72;;
31114;SDS011;17764;47.152;9.828;2022-07-21T00:21:48;6.05;;;5.45;;
31114;SDS011;17764;47.152;9.828;2022-07-21T00:24:14;6.90;;;6.20;;
31114;SDS011;17764;47.152;9.828;2022-07-21T00:26:40;5.72;;;5.22;;
31114;SDS011;17764;47.152;9.828;2022-07-21T00:29:07;6.28;;;5.65;;
31114;SDS011;17764;47.152;9.828;2022-07-21T00:31:33;6.15;;;5.47;;
31114;SDS011;17764;47.152;9.828;2022-07-21T00:33:59;6.88;;;5.70;;
31114;SDS011;17764;47.152;9.828;2022-07-21T00:36:25;6.88;;;6.18;;
31114;SDS011;17764;47.152;9.828;2022-07-21T00:38:51;6.10;;;5.50;;
31114;SDS011;17764;47.152;9.828;2022-07-21T00:41:17;8.70;;;5.78;;
31114;SDS011;17764;47.152;9.828;2022-07-21T00:43:43;7.45;;;5.45;;
31114;SDS011;17764;47.152;9.828;2022-07-21T00:46:09;10.60;;;6.13;;
31114;SDS011;17764;47.152;9.828;2022-07-21T00:48:35;6.60;;;5.70;;
31114;SDS011;17764;47.152;9.828;2022-07-21T00:51:01;6.43;;;5.82;;
31114;SDS011;17764;47.152;9.828;2022-07-21T00:53:27;9.85;;;5.43;;
31114;SDS011;17764;47.152;9.828;2022-07-21T00:55:53;5.72;;;5.22;;
31114;SDS011;17764;47.152;9.828;2022-07-21T00:58:19;6.07;;;5.53;;
31114;SDS011;17764;47.152;9.828;2022-07-21T01:00:47;6.32;;;5.72;;
31114;SDS011;17764;47.152;9.828;2022-07-21T01:03:13;6.80;;;5.93;;
31114;SDS011;17764;47.152;9.828;2022-07-21T01:05:40;7.20;;;5.65;;
31114;SDS011;17764;47.152;9.828;2022-07-21T01:08:06;6.45;;;5.75;;
31114;SDS011;17764;47.152;9.828;2022-07-21T01:10:31;6.97;;;6.32;;
31114;SDS011;17764;47.152;9.828;2022-07-21T01:12:58;6.68;;;5.93;;
31114;SDS011;17764;47.152;9.828;2022-07-21T01:15:25;6.50;;;5.93;;
31114;SDS011;17764;47.152;9.828;2022-07-21T01:17:51;6.53;;;5.57;;
31114;SDS011;17764;47.152;9.828;2022-07-21T01:20:18;6.75;;;6.05;;
31114;SDS011;17764;47.152;9.828;2022-07-21T01:22:45;6.30;;;5.70;;
31114;SDS011;17764;47.152;9.828;2022-07-21T01:25:12;7.20;;;6.55;;
31114;SDS011;17764;47.152;9.828;2022-07-21T01:27:38;6.93;;;5.90;;
31114;SDS011;17764;47.152;9.828;2022-07-21T01:30:05;6.82;;;5.60;;
31114;SDS011;17764;47.152;9.828;2022-07-21T01:32:38;6.57;;;5.90;;
31114;SDS011;17764;47.152;9.828;2022-07-21T01:35:05;6.45;;;5.85;;
31114;SDS011;17764;47.152;9.828;2022-07-21T01:37:37;6.40;;;5.88;;
31114;SDS011;17764;47.152;9.828;2022-07-21T01:40:05;6.97;;;6.28;;
31114;SDS011;17764;47.152;9.828;2022-07-21T01:42:50;6.35;;;5.75;;
31114;SDS011;17764;47.152;9.828;2022-07-21T01:45:18;6.00;;;5.50;;
31114;SDS011;17764;47.152;9.828;2022-07-21T01:47:44;6.10;;;5.50;;
31114;SDS011;17764;47.152;9.828;2022-07-21T01:50:10;6.25;;;5.60;;
31114;SDS011;17764;47.152;9.828;2022-07-21T01:52:36;6.00;;;5.40;;
31114;SDS011;17764;47.152;9.828;2022-07-21T01:55:02;6.00;;;5.50;;
31114;SDS011;17764;47.152;9.828;2022-07-21T01:57:28;6.57;;;5.85;;
31114;SDS011;17764;47.152;9.828;2022-07-21T01:59:54;7.63;;;5.70;;
31114;SDS011;17764;47.152;9.828;2022-07-21T02:02:20;6.68;;;5.53;;
31114;SDS011;17764;47.152;9.828;2022-07-21T02:04:50;6.82;;;5.50;;
31114;SDS011;17764;47.152;9.828;2022-07-21T02:07:16;6.30;;;5.78;;
31114;SDS011;17764;47.152;9.828;2022-07-21T02:09:42;6.32;;;5.72;;
31114;SDS011;17764;47.152;9.828;2022-07-21T02:12:08;5.90;;;5.35;;
31114;SDS011;17764;47.152;9.828;2022-07-21T02:14:35;7.53;;;6.10;;
31114;SDS011;17764;47.152;9.828;2022-07-21T02:17:01;6.85;;;6.25;;
31114;SDS011;17764;47.152;9.828;2022-07-21T02:19:27;6.50;;;6.00;;
31114;SDS011;17764;47.152;9.828;2022-07-21T02:21:53;7.55;;;6.30;;
31114;SDS011;17764;47.152;9.828;2022-07-21T02:24:19;7.82;;;6.10;;
31114;SDS011;17764;47.152;9.828;2022-07-21T02:26:45;6.65;;;6.07;;
31114;SDS011;17764;47.152;9.828;2022-07-21T02:29:11;6.20;;;5.60;;
31114;SDS011;17764;47.152;9.828;2022-07-21T02:31:37;6.38;;;5.88;;
31114;SDS011;17764;47.152;9.828;2022-07-21T02:34:03;6.72;;;5.55;;
31114;SDS011;17764;47.152;9.828;2022-07-21T02:36:31;6.45;;;5.85;;
31114;SDS011;17764;47.152;9.828;2022-07-21T02:38:57;6.78;;;6.18;;
31114;SDS011;17764;47.152;9.828;2022-07-21T02:41:23;6.47;;;5.82;;
31114;SDS011;17764;47.152;9.828;2022-07-21T02:43:49;6.68;;;5.95;;
31114;SDS011;17764;47.152;9.828;2022-07-21T02:46:15;6.35;;;5.75;;
31114;SDS011;17764;47.152;9.828;2022-07-21T02:48:41;6.53;;;5.93;;
31114;SDS011;17764;47.152;9.828;2022-07-21T02:51:07;6.63;;;6.03;;
31114;SDS011;17764;47.152;9.828;2022-07-21T02:53:33;6.70;;;6.05;;
31114;SDS011;17764;47.152;9.828;2022-07-21T02:55:59;7.68;;;6.28;;
31114;SDS011;17764;47.152;9.828;2022-07-21T02:58:26;6.25;;;5.72;;
31114;SDS011;17764;47.152;9.828;2022-07-21T03:03:19;7.40;;;6.70;;
31114;SDS011;17764;47.152;9.828;2022-07-21T03:05:46;7.32;;;6.72;;
31114;SDS011;17764;47.152;9.828;2022-07-21T03:08:12;6.70;;;6.10;;
31114;SDS011;17764;47.152;9.828;2022-07-21T03:10:38;7.07;;;6.20;;
31114;SDS011;17764;47.152;9.828;2022-07-21T03:13:04;6.82;;;6.22;;
31114;SDS011;17764;47.152;9.828;2022-07-21T03:15:31;6.68;;;6.07;;
31114;SDS011;17764;47.152;9.828;2022-07-21T03:17:57;6.93;;;6.15;;
31114;SDS011;17764;47.152;9.828;2022-07-21T03:20:26;6.82;;;6.13;;
31114;SDS011;17764;47.152;9.828;2022-07-21T03:22:52;6.93;;;6.32;;
31114;SDS011;17764;47.152;9.828;2022-07-21T03:25:19;9.07;;;7.88;;
31114;SDS011;17764;47.152;9.828;2022-07-21T03:27:45;7.80;;;7.10;;
31114;SDS011;17764;47.152;9.828;2022-07-21T03:30:12;7.07;;;6.45;;
31114;SDS011;17764;47.152;9.828;2022-07-21T03:32:38;6.60;;;5.93;;
31114;SDS011;17764;47.152;9.828;2022-07-21T03:35:04;6.35;;;5.80;;
31114;SDS011;17764;47.152;9.828;2022-07-21T03:37:31;6.63;;;6.03;;
31114;SDS011;17764;47.152;9.828;2022-07-21T03:39:57;6.45;;;5.90;;
31114;SDS011;17764;47.152;9.828;2022-07-21T03:42:23;7.05;;;6.35;;
31114;SDS011;17764;47.152;9.828;2022-07-21T03:44:49;6.75;;;6.25;;
31114;SDS011;17764;47.152;9.828;2022-07-21T03:47:15;7.18;;;6.47;;
31114;SDS011;17764;47.152;9.828;2022-07-21T03:49:41;6.90;;;6.30;;
31114;SDS011;17764;47.152;9.828;2022-07-21T03:52:07;7.70;;;7.00;;
31114;SDS011;17764;47.152;9.828;2022-07-21T03:54:33;8.13;;;6.60;;
31114;SDS011;17764;47.152;9.828;2022-07-21T03:56:59;6.78;;;6.22;;
31114;SDS011;17764;47.152;9.828;2022-07-21T03:59:25;6.88;;;6.28;;
31114;SDS011;17764;47.152;9.828;2022-07-21T04:01:51;7.32;;;6.63;;
31114;SDS011;17764;47.152;9.828;2022-07-21T04:04:17;7.45;;;6.82;;
31114;SDS011;17764;47.152;9.828;2022-07-21T04:06:43;7.60;;;6.82;;
31114;SDS011;17764;47.152;9.828;2022-07-21T04:09:09;7.95;;;7.15;;
31114;SDS011;17764;47.152;9.828;2022-07-21T04:11:35;8.15;;;7.38;;
31114;SDS011;17764;47.152;9.828;2022-07-21T04:14:01;8.35;;;7.53;;
31114;SDS011;17764;47.152;9.828;2022-07-21T04:16:27;8.10;;;7.25;;
31114;SDS011;17764;47.152;9.828;2022-07-21T04:18:53;7.95;;;7.15;;
31114;SDS011;17764;47.152;9.828;2022-07-21T04:21:19;8.45;;;7.55;;
31114;SDS011;17764;47.152;9.828;2022-07-21T04:23:45;8.45;;;7.00;;
31114;SDS011;17764;47.152;9.828;2022-07-21T04:26:11;7.68;;;6.97;;
31114;SDS011;17764;47.152;9.828;2022-07-21T04:28:38;7.95;;;6.75;;
31114;SDS011;17764;47.152;9.828;2022-07-21T04:31:04;8.45;;;7.55;;
31114;SDS011;17764;47.152;9.828;2022-07-21T04:33:30;8.13;;;7.43;;
31114;SDS011;17764;47.152;9.828;2022-07-21T04:35:56;7.80;;;7.10;;
31114;SDS011;17764;47.152;9.828;2022-07-21T04:38:22;8.48;;;7.63;;
31114;SDS011;17764;47.152;9.828;2022-07-21T04:40:49;7.57;;;6.88;;
31114;SDS011;17764;47.152;9.828;2022-07-21T04:43:15;7.30;;;6.70;;
31114;SDS011;17764;47.152;9.828;2022-07-21T04:45:41;7.38;;;6.78;;
31114;SDS011;17764;47.152;9.828;2022-07-21T04:48:07;8.05;;;7.25;;
31114;SDS011;17764;47.152;9.828;2022-07-21T04:50:33;8.13;;;7.38;;
31114;SDS011;17764;47.152;9.828;2022-07-21T04:52:59;7.70;;;7.00;;
31114;SDS011;17764;47.152;9.828;2022-07-21T04:55:25;7.90;;;7.20;;
31114;SDS011;17764;47.152;9.828;2022-07-21T04:57:51;7.72;;;7.03;;
31114;SDS011;17764;47.152;9.828;2022-07-21T05:00:22;7.28;;;6.68;;
31114;SDS011;17764;47.152;9.828;2022-07-21T05:02:49;7.78;;;6.97;;
31114;SDS011;17764;47.152;9.828;2022-07-21T05:05:16;7.13;;;6.53;;
31114;SDS011;17764;47.152;9.828;2022-07-21T05:07:42;7.22;;;6.60;;
31114;SDS011;17764;47.152;9.828;2022-07-21T05:10:09;8.02;;;7.22;;
31114;SDS011;17764;47.152;9.828;2022-07-21T05:12:38;7.78;;;7.07;;
31114;SDS011;17764;47.152;9.828;2022-07-21T05:15:04;8.27;;;7.45;;
31114;SDS011;17764;47.152;9.828;2022-07-21T05:17:31;9.00;;;6.63;;
31114;SDS011;17764;47.152;9.828;2022-07-21T05:19:58;7.55;;;6.85;;
31114;SDS011;17764;47.152;9.828;2022-07-21T05:22:24;8.02;;;7.20;;
31114;SDS011;17764;47.152;9.828;2022-07-21T05:24:50;9.00;;;6.80;;
31114;SDS011;17764;47.152;9.828;2022-07-21T05:27:16;8.07;;;7.35;;
31114;SDS011;17764;47.152;9.828;2022-07-21T05:29:42;8.73;;;7.85;;
31114;SDS011;17764;47.152;9.828;2022-07-21T05:32:09;9.05;;;8.20;;
31114;SDS011;17764;47.152;9.828;2022-07-21T05:34:34;9.70;;;8.23;;
31114;SDS011;17764;47.152;9.828;2022-07-21T05:37:01;8.20;;;7.40;;
31114;SDS011;17764;47.152;9.828;2022-07-21T05:39:26;8.27;;;7.50;;
31114;SDS011;17764;47.152;9.828;2022-07-21T05:41:52;8.55;;;7.47;;
31114;SDS011;17764;47.152;9.828;2022-07-21T05:44:18;8.30;;;7.07;;
31114;SDS011;17764;47.152;9.828;2022-07-21T05:46:44;9.77;;;7.95;;
31114;SDS011;17764;47.152;9.828;2022-07-21T05:49:10;7.28;;;6.57;;
31114;SDS011;17764;47.152;9.828;2022-07-21T05:51:36;7.65;;;6.85;;
31114;SDS011;17764;47.152;9.828;2022-07-21T05:54:03;8.07;;;7.38;;
31114;SDS011;17764;47.152;9.828;2022-07-21T05:56:29;8.07;;;7.38;;
31114;SDS011;17764;47.152;9.828;2022-07-21T05:58:55;7.82;;;7.05;;
31114;SDS011;17764;47.152;9.828;2022-07-21T06:01:21;7.70;;;6.88;;
31114;SDS011;17764;47.152;9.828;2022-07-21T06:03:48;7.72;;;6.68;;
31114;SDS011;17764;47.152;9.828;2022-07-21T06:06:15;7.57;;;6.80;;
31114;SDS011;17764;47.152;9.828;2022-07-21T06:08:42;7.80;;;6.97;;
31114;SDS011;17764;47.152;9.828;2022-07-21T06:11:09;7.50;;;6.60;;
31114;SDS011;17764;47.152;9.828;2022-07-21T06:13:37;7.22;;;6.60;;
31114;SDS011;17764;47.152;9.828;2022-07-21T06:16:04;7.40;;;6.68;;
31114;SDS011;17764;47.152;9.828;2022-07-21T06:18:30;8.20;;;7.40;;
31114;SDS011;17764;47.152;9.828;2022-07-21T06:20:56;7.18;;;6.55;;
31114;SDS011;17764;47.152;9.828;2022-07-21T06:23:22;8.02;;;7.22;;
31114;SDS011;17764;47.152;9.828;2022-07-21T06:25:50;7.07;;;6.57;;
31114;SDS011;17764;47.152;9.828;2022-07-21T06:28:16;7.00;;;6.40;;
31114;SDS011;17764;47.152;9.828;2022-07-21T06:30:42;7.93;;;7.13;;
31114;SDS011;17764;47.152;9.828;2022-07-21T06:33:08;8.18;;;6.57;;
31114;SDS011;17764;47.152;9.828;2022-07-21T06:35:35;6.95;;;6.28;;
31114;SDS011;17764;47.152;9.828;2022-07-21T06:38:01;7.32;;;6.70;;
31114;SDS011;17764;47.152;9.828;2022-07-21T06:40:27;6.60;;;6.00;;
31114;SDS011;17764;47.152;9.828;2022-07-21T06:42:53;6.78;;;6.18;;
31114;SDS011;17764;47.152;9.828;2022-07-21T06:45:18;7.40;;;6.75;;
31114;SDS011;17764;47.152;9.828;2022-07-21T06:47:45;7.55;;;6.38;;
31114;SDS011;17764;47.152;9.828;2022-07-21T06:50:12;6.63;;;6.03;;
31114;SDS011;17764;47.152;9.828;2022-07-21T06:52:38;6.93;;;6.32;;
31114;SDS011;17764;47.152;9.828;2022-07-21T06:55:04;7.00;;;6.40;;
31114;SDS011;17764;47.152;9.828;2022-07-21T06:57:32;6.85;;;6.25;;
31114;SDS011;17764;47.152;9.828;2022-07-21T06:59:58;7.10;;;6.50;;
31114;SDS011;17764;47.152;9.828;2022-07-21T07:02:24;6.82;;;6.22;;
31114;SDS011;17764;47.152;9.828;2022-07-21T07:04:50;7.22;;;6.53;;
31114;SDS011;17764;47.152;9.828;2022-07-21T07:07:16;7.85;;;6.70;;
31114;SDS011;17764;47.152;9.828;2022-07-21T07:09:43;7.20;;;6.60;;
31114;SDS011;17764;47.152;9.828;2022-07-21T07:12:09;7.43;;;6.70;;
31114;SDS011;17764;47.152;9.828;2022-07-21T07:14:35;7.18;;;6.57;;
31114;SDS011;17764;47.152;9.828;2022-07-21T07:17:02;6.97;;;6.38;;
31114;SDS011;17764;47.152;9.828;2022-07-21T07:19:28;7.45;;;6.80;;
31114;SDS011;17764;47.152;9.828;2022-07-21T07:21:54;7.75;;;7.05;;
31114;SDS011;17764;47.152;9.828;2022-07-21T07:24:20;6.93;;;6.22;;
31114;SDS011;17764;47.152;9.828;2022-07-21T07:26:47;7.15;;;6.55;;
31114;SDS011;17764;47.152;9.828;2022-07-21T07:29:13;8.10;;;6.80;;
31114;SDS011;17764;47.152;9.828;2022-07-21T07:31:39;8.00;;;6.97;;
31114;SDS011;17764;47.152;9.828;2022-07-21T07:34:05;8.05;;;7.25;;
31114;SDS011;17764;47.152;9.828;2022-07-21T07:36:31;7.75;;;6.97;;
31114;SDS011;17764;47.152;9.828;2022-07-21T07:38:58;11.15;;;7.50;;
31114;SDS011;17764;47.152;9.828;2022-07-21T07:41:25;8.45;;;7.53;;
31114;SDS011;17764;47.152;9.828;2022-07-21T07:43:51;10.60;;;7.38;;
31114;SDS011;17764;47.152;9.828;2022-07-21T07:46:18;10.57;;;7.65;;
31114;SDS011;17764;47.152;9.828;2022-07-21T07:48:44;11.43;;;7.50;;
31114;SDS011;17764;47.152;9.828;2022-07-21T07:51:10;7.95;;;7.25;;
31114;SDS011;17764;47.152;9.828;2022-07-21T07:53:37;10.80;;;7.28;;
31114;SDS011;17764;47.152;9.828;2022-07-21T07:56:03;8.73;;;7.88;;
31114;SDS011;17764;47.152;9.828;2022-07-21T07:58:29;8.90;;;8.00;;
31114;SDS011;17764;47.152;9.828;2022-07-21T08:00:56;10.07;;;7.80;;
31114;SDS011;17764;47.152;9.828;2022-07-21T08:03:22;8.88;;;7.65;;
31114;SDS011;17764;47.152;9.828;2022-07-21T08:05:49;8.50;;;7.57;;
31114;SDS011;17764;47.152;9.828;2022-07-21T08:08:15;8.02;;;6.65;;
31114;SDS011;17764;47.152;9.828;2022-07-21T08:10:42;7.60;;;6.80;;
31114;SDS011;17764;47.152;9.828;2022-07-21T08:13:11;8.35;;;6.93;;
31114;SDS011;17764;47.152;9.828;2022-07-21T08:15:38;7.68;;;6.85;;
31114;SDS011;17764;47.152;9.828;2022-07-21T08:18:04;8.25;;;7.10;;
31114;SDS011;17764;47.152;9.828;2022-07-21T08:20:30;7.05;;;6.45;;
31114;SDS011;17764;47.152;9.828;2022-07-21T08:22:56;7.28;;;6.65;;
31114;SDS011;17764;47.152;9.828;2022-07-21T08:25:22;7.43;;;6.72;;
31114;SDS011;17764;47.152;9.828;2022-07-21T08:27:48;7.30;;;6.05;;
31114;SDS011;17764;47.152;9.828;2022-07-21T08:30:14;7.53;;;6.70;;
31114;SDS011;17764;47.152;9.828;2022-07-21T08:32:40;9.15;;;7.45;;
31114;SDS011;17764;47.152;9.828;2022-07-21T08:35:06;7.68;;;6.88;;
31114;SDS011;17764;47.152;9.828;2022-07-21T08:37:36;7.63;;;6.82;;
31114;SDS011;17764;47.152;9.828;2022-07-21T08:40:04;7.72;;;7.00;;
31114;SDS011;17764;47.152;9.828;2022-07-21T08:42:30;8.07;;;7.22;;
31114;SDS011;17764;47.152;9.828;2022-07-21T08:44:56;7.72;;;7.03;;
31114;SDS011;17764;47.152;9.828;2022-07-21T08:47:24;8.52;;;7.38;;
31114;SDS011;17764;47.152;9.828;2022-07-21T08:49:50;7.28;;;6.57;;
31114;SDS011;17764;47.152;9.828;2022-07-21T08:52:16;7.88;;;7.18;;
31114;SDS011;17764;47.152;9.828;2022-07-21T08:54:43;8.60;;;7.60;;
31114;SDS011;17764;47.152;9.828;2022-07-21T08:57:10;7.70;;;7.00;;
31114;SDS011;17764;47.152;9.828;2022-07-21T08:59:36;7.88;;;7.18;;
31114;SDS011;17764;47.152;9.828;2022-07-21T09:02:03;7.50;;;6.78;;
31114;SDS011;17764;47.152;9.828;2022-07-21T09:04:30;8.35;;;7.55;;
31114;SDS011;17764;47.152;9.828;2022-07-21T09:07:03;12.05;;;8.48;;
31114;SDS011;17764;47.152;9.828;2022-07-21T09:09:31;8.45;;;7.68;;
31114;SDS011;17764;47.152;9.828;2022-07-21T09:11:57;8.15;;;7.35;;
31114;SDS011;17764;47.152;9.828;2022-07-21T09:14:25;8.95;;;7.00;;
31114;SDS011;17764;47.152;9.828;2022-07-21T09:19:23;8.23;;;7.38;;
31114;SDS011;17764;47.152;9.828;2022-07-21T09:21:58;9.15;;;7.65;;
31114;SDS011;17764;47.152;9.828;2022-07-21T09:29:37;9.88;;;8.88;;
31114;SDS011;17764;47.152;9.828;2022-07-21T09:34:41;8.75;;;7.95;;
31114;SDS011;17764;47.152;9.828;2022-07-21T09:37:08;8.00;;;7.20;;
31114;SDS011;17764;47.152;9.828;2022-07-21T09:39:47;8.70;;;7.82;;
31114;SDS011;17764;47.152;9.828;2022-07-21T09:42:17;10.30;;;8.60;;
31114;SDS011;17764;47.152;9.828;2022-07-21T09:44:44;9.10;;;8.30;;
31114;SDS011;17764;47.152;9.828;2022-07-21T09:47:12;9.20;;;7.95;;
31114;SDS011;17764;47.152;9.828;2022-07-21T09:49:40;9.13;;;8.30;;
31114;SDS011;17764;47.152;9.828;2022-07-21T09:52:20;10.93;;;8.63;;
31114;SDS011;17764;47.152;9.828;2022-07-21T09:54:47;8.55;;;7.68;;
31114;SDS011;17764;47.152;9.828;2022-07-21T09:57:14;9.70;;;8.70;;
31114;SDS011;17764;47.152;9.828;2022-07-21T09:59:45;9.20;;;8.40;;
31114;SDS011;17764;47.152;9.828;2022-07-21T10:02:15;9.13;;;8.20;;
31114;SDS011;17764;47.152;9.828;2022-07-21T10:04:44;8.38;;;7.57;;
31114;SDS011;17764;47.152;9.828;2022-07-21T10:07:12;8.95;;;8.05;;
31114;SDS011;17764;47.152;9.828;2022-07-21T10:09:39;10.07;;;8.82;;
31114;SDS011;17764;47.152;9.828;2022-07-21T10:12:06;9.05;;;8.15;;
31114;SDS011;17764;47.152;9.828;2022-07-21T10:14:32;10.23;;;8.60;;
31114;SDS011;17764;47.152;9.828;2022-07-21T10:16:58;9.43;;;8.50;;
31114;SDS011;17764;47.152;9.828;2022-07-21T10:24:17;12.07;;;10.02;;
31114;SDS011;17764;47.152;9.828;2022-07-21T10:27:03;10.85;;;9.35;;
31114;SDS011;17764;47.152;9.828;2022-07-21T10:29:49;10.88;;;9.75;;
31114;SDS011;17764;47.152;9.828;2022-07-21T10:32:30;11.00;;;9.93;;
31114;SDS011;17764;47.152;9.828;2022-07-21T10:34:57;11.05;;;10.15;;
31114;SDS011;17764;47.152;9.828;2022-07-21T10:40:06;11.18;;;9.48;;
31114;SDS011;17764;47.152;9.828;2022-07-21T10:42:38;9.98;;;8.98;;
31114;SDS011;17764;47.152;9.828;2022-07-21T10:45:16;10.10;;;9.13;;
31114;SDS011;17764;47.152;9.828;2022-07-21T10:47:56;10.43;;;9.43;;
31114;SDS011;17764;47.152;9.828;2022-07-21T10:50:32;9.80;;;8.55;;
31114;SDS011;17764;47.152;9.828;2022-07-21T10:52:59;9.02;;;8.18;;
31114;SDS011;17764;47.152;9.828;2022-07-21T10:55:37;10.63;;;8.77;;
31114;SDS011;17764;47.152;9.828;2022-07-21T10:58:11;9.70;;;8.77;;
31114;SDS011;17764;47.152;9.828;2022-07-21T11:08:33;8.52;;;7.75;;
31114;SDS011;17764;47.152;9.828;2022-07-21T11:11:18;11.25;;;10.07;;
31114;SDS011;17764;47.152;9.828;2022-07-21T11:21:53;11.25;;;10.10;;
31114;SDS011;17764;47.152;9.828;2022-07-21T11:24:20;9.73;;;8.60;;
31114;SDS011;17764;47.152;9.828;2022-07-21T11:27:21;10.95;;;9.80;;
31114;SDS011;17764;47.152;9.828;2022-07-21T11:29:40;11.48;;;9.40;;
31114;SDS011;17764;47.152;9.828;2022-07-21T11:32:08;9.68;;;8.73;;
31114;SDS011;17764;47.152;9.828;2022-07-21T11:34:42;13.23;;;10.13;;
31114;SDS011;17764;47.152;9.828;2022-07-21T11:37:09;10.65;;;9.50;;
31114;SDS011;17764;47.152;9.828;2022-07-21T11:39:35;9.65;;;8.75;;
31114;SDS011;17764;47.152;9.828;2022-07-21T11:42:02;11.30;;;9.40;;
31114;SDS011;17764;47.152;9.828;2022-07-21T11:44:29;9.93;;;8.60;;
31114;SDS011;17764;47.152;9.828;2022-07-21T11:46:57;10.38;;;9.32;;
31114;SDS011;17764;47.152;9.828;2022-07-21T11:49:23;11.60;;;10.15;;
31114;SDS011;17764;47.152;9.828;2022-07-21T11:52:24;9.50;;;8.40;;
31114;SDS011;17764;47.152;9.828;2022-07-21T11:54:49;9.13;;;8.23;;
31114;SDS011;17764;47.152;9.828;2022-07-21T11:57:16;10.63;;;9.63;;
31114;SDS011;17764;47.152;9.828;2022-07-21T11:59:44;13.23;;;9.90;;
31114;SDS011;17764;47.152;9.828;2022-07-21T12:02:11;10.05;;;9.02;;
31114;SDS011;17764;47.152;9.828;2022-07-21T12:07:15;10.02;;;9.02;;
31114;SDS011;17764;47.152;9.828;2022-07-21T12:09:44;11.90;;;9.48;;
31114;SDS011;17764;47.152;9.828;2022-07-21T12:12:11;9.13;;;8.05;;
31114;SDS011;17764;47.152;9.828;2022-07-21T12:17:09;10.00;;;8.70;;
31114;SDS011;17764;47.152;9.828;2022-07-21T12:19:36;11.00;;;9.77;;
31114;SDS011;17764;47.152;9.828;2022-07-21T12:22:02;9.07;;;8.25;;
31114;SDS011;17764;47.152;9.828;2022-07-21T12:27:13;9.15;;;8.35;;
31114;SDS011;17764;47.152;9.828;2022-07-21T12:29:39;9.27;;;8.13;;
31114;SDS011;17764;47.152;9.828;2022-07-21T12:32:05;8.48;;;7.68;;
31114;SDS011;17764;47.152;9.828;2022-07-21T12:34:31;8.70;;;7.90;;
31114;SDS011;17764;47.152;9.828;2022-07-21T12:36:57;10.63;;;8.88;;
31114;SDS011;17764;47.152;9.828;2022-07-21T12:39:24;8.88;;;7.97;;
31114;SDS011;17764;47.152;9.828;2022-07-21T12:42:10;10.02;;;7.70;;
31114;SDS011;17764;47.152;9.828;2022-07-21T12:44:37;8.52;;;7.57;;
31114;SDS011;17764;47.152;9.828;2022-07-21T12:47:14;10.65;;;8.35;;
31114;SDS011;17764;47.152;9.828;2022-07-21T12:50:04;10.73;;;8.23;;
31114;SDS011;17764;47.152;9.828;2022-07-21T12:52:31;8.20;;;7.35;;
31114;SDS011;17764;47.152;9.828;2022-07-21T12:54:58;7.55;;;6.80;;
31114;SDS011;17764;47.152;9.828;2022-07-21T12:57:26;9.00;;;7.25;;
31114;SDS011;17764;47.152;9.828;2022-07-21T12:59:57;7.97;;;7.18;;
31114;SDS011;17764;47.152;9.828;2022-07-21T13:02:24;8.32;;;7.50;;
31114;SDS011;17764;47.152;9.828;2022-07-21T13:04:51;8.48;;;7.65;;
31114;SDS011;17764;47.152;9.828;2022-07-21T13:07:17;9.43;;;7.40;;
31114;SDS011;17764;47.152;9.828;2022-07-21T13:09:43;9.93;;;8.45;;
31114;SDS011;17764;47.152;9.828;2022-07-21T13:12:12;8.30;;;7.50;;
31114;SDS011;17764;47.152;9.828;2022-07-21T13:14:38;7.72;;;7.05;;
31114;SDS011;17764;47.152;9.828;2022-07-21T13:17:05;7.35;;;6.65;;
31114;SDS011;17764;47.152;9.828;2022-07-21T13:19:31;7.28;;;6.57;;
31114;SDS011;17764;47.152;9.828;2022-07-21T13:21:57;9.15;;;7.75;;
31114;SDS011;17764;47.152;9.828;2022-07-21T13:24:23;7.70;;;6.88;;
31114;SDS011;17764;47.152;9.828;2022-07-21T13:26:49;8.52;;;7.63;;
31114;SDS011;17764;47.152;9.828;2022-07-21T13:29:15;7.85;;;7.05;;
31114;SDS011;17764;47.152;9.828;2022-07-21T13:31:41;9.20;;;7.43;;
31114;SDS011;17764;47.152;9.828;2022-07-21T13:34:07;8.35;;;7.28;;
31114;SDS011;17764;47.152;9.828;2022-07-21T13:36:34;8.30;;;7.50;;
31114;SDS011;17764;47.152;9.828;2022-07-21T13:39:00;7.82;;;7.10;;
31114;SDS011;17764;47.152;9.828;2022-07-21T13:41:28;8.15;;;7.32;;
31114;SDS011;17764;47.152;9.828;2022-07-21T13:43:55;9.00;;;7.50;;
31114;SDS011;17764;47.152;9.828;2022-07-21T13:46:22;11.02;;;7.82;;
31114;SDS011;17764;47.152;9.828;2022-07-21T13:48:49;8.50;;;7.60;;
31114;SDS011;17764;47.152;9.828;2022-07-21T13:51:15;7.63;;;6.88;;
31114;SDS011;17764;47.152;9.828;2022-07-21T13:53:43;8.95;;;7.18;;
31114;SDS011;17764;47.152;9.828;2022-07-21T13:56:09;12.32;;;8.13;;
31114;SDS011;17764;47.152;9.828;2022-07-21T13:58:36;7.30;;;6.65;;
31114;SDS011;17764;47.152;9.828;2022-07-21T14:01:02;8.40;;;7.35;;
31114;SDS011;17764;47.152;9.828;2022-07-21T14:03:28;7.78;;;7.00;;
31114;SDS011;17764;47.152;9.828;2022-07-21T14:05:55;7.78;;;7.07;;
31114;SDS011;17764;47.152;9.828;2022-07-21T14:08:21;8.25;;;7.45;;
31114;SDS011;17764;47.152;9.828;2022-07-21T14:10:47;7.28;;;6.57;;
31114;SDS011;17764;47.152;9.828;2022-07-21T14:13:13;8.85;;;8.05;;
31114;SDS011;17764;47.152;9.828;2022-07-21T14:15:39;8.40;;;7.60;;
31114;SDS011;17764;47.152;9.828;2022-07-21T14:18:05;8.75;;;7.75;;
31114;SDS011;17764;47.152;9.828;2022-07-21T14:20:31;8.00;;;7.20;;
31114;SDS011;17764;47.152;9.828;2022-07-21T14:22:57;8.55;;;7.65;;
31114;SDS011;17764;47.152;9.828;2022-07-21T14:25:23;8.02;;;7.20;;
31114;SDS011;17764;47.152;9.828;2022-07-21T14:27:53;7.75;;;6.95;;
31114;SDS011;17764;47.152;9.828;2022-07-21T14:30:20;7.60;;;6.90;;
31114;SDS011;17764;47.152;9.828;2022-07-21T14:32:46;9.73;;;7.30;;
31114;SDS011;17764;47.152;9.828;2022-07-21T14:35:12;7.75;;;7.03;;
31114;SDS011;17764;47.152;9.828;2022-07-21T14:37:44;9.45;;;6.90;;
31114;SDS011;17764;47.152;9.828;2022-07-21T14:40:11;7.75;;;7.05;;
31114;SDS011;17764;47.152;9.828;2022-07-21T14:42:37;7.47;;;6.78;;
31114;SDS011;17764;47.152;9.828;2022-07-21T14:45:04;9.98;;;7.25;;
31114;SDS011;17764;47.152;9.828;2022-07-21T14:47:31;8.30;;;7.07;;
31114;SDS011;17764;47.152;9.828;2022-07-21T14:49:57;7.25;;;6.65;;
31114;SDS011;17764;47.152;9.828;2022-07-21T14:52:23;7.30;;;6.50;;
31114;SDS011;17764;47.152;9.828;2022-07-21T14:54:49;7.45;;;6.75;;
31114;SDS011;17764;47.152;9.828;2022-07-21T14:57:15;7.68;;;6.65;;
31114;SDS011;17764;47.152;9.828;2022-07-21T14:59:41;7.10;;;6.40;;
31114;SDS011;17764;47.152;9.828;2022-07-21T15:02:07;8.05;;;6.68;;
31114;SDS011;17764;47.152;9.828;2022-07-21T15:04:33;7.88;;;7.07;;
31114;SDS011;17764;47.152;9.828;2022-07-21T15:06:59;7.90;;;7.18;;
31114;SDS011;17764;47.152;9.828;2022-07-21T15:09:26;8.23;;;6.53;;
31114;SDS011;17764;47.152;9.828;2022-07-21T15:11:52;7.18;;;6.47;;
31114;SDS011;17764;47.152;9.828;2022-07-21T15:14:17;7.15;;;6.47;;
31114;SDS011;17764;47.152;9.828;2022-07-21T15:16:43;7.70;;;6.95;;
31114;SDS011;17764;47.152;9.828;2022-07-21T15:19:09;7.90;;;7.10;;
31114;SDS011;17764;47.152;9.828;2022-07-21T15:21:35;8.32;;;7.25;;
31114;SDS011;17764;47.152;9.828;2022-07-21T15:24:01;7.30;;;6.60;;
31114;SDS011;17764;47.152;9.828;2022-07-21T15:26:28;7.55;;;6.78;;
31114;SDS011;17764;47.152;9.828;2022-07-21T15:28:53;7.13;;;6.43;;
31114;SDS011;17764;47.152;9.828;2022-07-21T15:31:19;7.50;;;6.80;;